createdAt,value
2023-05-22T00:00:15.944Z,63
2023-05-22T00:01:23.436Z,63
2023-05-22T00:02:30.650Z,63
2023-05-22T00:03:40.377Z,63
2023-05-22T00:04:47.419Z,63
2023-05-22T00:06:01.668Z,63
2023-05-22T00:07:09.334Z,63
2023-05-22T00:08:16.352Z,63
2023-05-22T00:09:25.692Z,63
2023-05-22T00:10:33.391Z,63
2023-05-22T00:11:45.544Z,63
2023-05-22T00:12:55.123Z,63
2023-05-22T00:14:04.682Z,63
2023-05-22T00:15:13.392Z,63
2023-05-22T00:16:20.632Z,63
2023-05-22T00:17:30.887Z,63
2023-05-22T00:18:57.837Z,63
2023-05-22T00:20:05.957Z,63
2023-05-22T00:21:18.751Z,63
2023-05-22T00:22:25.700Z,63
2023-05-22T00:23:32.756Z,63
2023-05-22T00:24:42.604Z,63
2023-05-22T00:25:52.342Z,63
2023-05-22T00:27:02.316Z,63
2023-05-22T00:28:20.617Z,63
2023-05-22T00:29:38.832Z,63
2023-05-22T00:30:50.024Z,63
2023-05-22T00:31:57.662Z,63
2023-05-22T00:33:04.806Z,63
2023-05-22T00:34:12.150Z,63
2023-05-22T00:35:19.143Z,63
2023-05-22T00:36:26.182Z,63
2023-05-22T00:37:33.095Z,63
2023-05-22T00:38:41.056Z,63
2023-05-22T00:39:48.449Z,63
2023-05-22T00:40:55.921Z,63
2023-05-22T00:42:02.939Z,63
2023-05-22T00:43:10.204Z,63
2023-05-22T00:44:17.884Z,63
2023-05-22T00:45:25.008Z,63
2023-05-22T00:46:36.601Z,64
2023-05-22T00:47:47.315Z,63
2023-05-22T00:49:01.682Z,63
2023-05-22T00:50:11.443Z,63
2023-05-22T00:51:18.383Z,63
2023-05-22T00:52:25.700Z,63
2023-05-22T00:53:35.427Z,63
2023-05-22T00:54:42.373Z,63
2023-05-22T00:55:49.349Z,63
2023-05-22T00:57:02.895Z,63
2023-05-22T00:58:09.937Z,63
2023-05-22T00:59:19.923Z,63
2023-05-22T01:00:35.744Z,63
2023-05-22T01:01:43.450Z,63
2023-05-22T01:03:02.542Z,63
2023-05-22T01:04:09.425Z,63
2023-05-22T01:05:19.379Z,63
2023-05-22T01:06:27.210Z,63
2023-05-22T01:07:34.458Z,63
2023-05-22T01:08:44.011Z,63
2023-05-22T01:09:51.522Z,63
2023-05-22T01:10:58.574Z,63
2023-05-22T01:12:09.092Z,62
2023-05-22T01:13:32.789Z,63
2023-05-22T01:14:52.075Z,62
2023-05-22T01:15:59.361Z,62
2023-05-22T01:17:14.395Z,62
2023-05-22T01:18:27.294Z,63
2023-05-22T01:19:52.719Z,62
2023-05-22T01:21:05.349Z,62
2023-05-22T01:22:19.458Z,62
2023-05-22T01:23:31.622Z,62
2023-05-22T01:24:53.366Z,62
2023-05-22T01:26:00.688Z,63
2023-05-22T01:27:16.396Z,62
2023-05-22T01:28:23.832Z,62
2023-05-22T01:29:40.946Z,62
2023-05-22T01:30:58.214Z,62
2023-05-22T01:32:05.643Z,62
2023-05-22T01:33:13.606Z,62
2023-05-22T01:34:28.231Z,62
2023-05-22T01:35:38.956Z,62
2023-05-22T01:36:45.857Z,62
2023-05-22T01:37:55.547Z,62
2023-05-22T01:39:12.972Z,63
2023-05-22T01:40:20.862Z,63
2023-05-22T01:41:32.040Z,63
2023-05-22T01:42:44.205Z,63
2023-05-22T01:43:51.742Z,63
2023-05-22T01:44:59.367Z,63
2023-05-22T01:46:27.305Z,63
2023-05-22T01:47:36.762Z,63
2023-05-22T01:48:46.074Z,63
2023-05-22T01:49:54.151Z,63
2023-05-22T01:51:22.466Z,63
2023-05-22T01:52:35.029Z,63
2023-05-22T01:53:47.299Z,63
2023-05-22T01:54:57.433Z,63
2023-05-22T01:56:05.965Z,63
2023-05-22T01:57:20.320Z,63
2023-05-22T01:58:33.901Z,63
2023-05-22T01:59:45.580Z,63
2023-05-22T02:00:52.786Z,63
2023-05-22T02:02:01.056Z,63
2023-05-22T02:03:17.133Z,63
2023-05-22T02:04:24.554Z,63
2023-05-22T02:05:37.272Z,63
2023-05-22T02:06:45.616Z,63
2023-05-22T02:07:52.657Z,63
2023-05-22T02:09:04.054Z,64
2023-05-22T02:10:11.287Z,63
2023-05-22T02:11:24.525Z,63
2023-05-22T02:12:32.397Z,63
2023-05-22T02:13:39.784Z,63
2023-05-22T02:14:49.278Z,63
2023-05-22T02:15:56.622Z,63
2023-05-22T02:17:14.177Z,63
2023-05-22T02:18:23.972Z,64
2023-05-22T02:19:36.910Z,64
2023-05-22T02:20:43.837Z,64
2023-05-22T02:21:55.468Z,64
2023-05-22T02:23:03.651Z,64
2023-05-22T02:24:19.046Z,64
2023-05-22T02:25:37.581Z,64
2023-05-22T02:26:45.209Z,64
2023-05-22T02:27:52.615Z,64
2023-05-22T02:29:02.367Z,64
2023-05-22T02:30:09.282Z,64
2023-05-22T02:31:17.036Z,64
2023-05-22T02:32:27.492Z,64
2023-05-22T02:33:41.161Z,64
2023-05-22T02:34:54.741Z,64
2023-05-22T02:36:02.805Z,64
2023-05-22T02:37:11.242Z,64
2023-05-22T02:38:18.252Z,64
2023-05-22T02:39:26.182Z,64
2023-05-22T02:40:33.357Z,64
2023-05-22T02:41:43.106Z,64
2023-05-22T02:42:54.464Z,64
2023-05-22T02:44:01.453Z,64
2023-05-22T02:45:08.772Z,64
2023-05-22T02:46:19.391Z,64
2023-05-22T02:47:30.717Z,64
2023-05-22T02:48:37.802Z,65
2023-05-22T02:49:47.890Z,65
2023-05-22T02:50:54.922Z,65
2023-05-22T02:52:01.966Z,65
2023-05-22T02:53:09.685Z,65
2023-05-22T02:54:17.429Z,65
2023-05-22T02:55:25.000Z,65
2023-05-22T02:56:37.329Z,65
2023-05-22T02:57:45.000Z,65
2023-05-22T02:58:58.306Z,65
2023-05-22T03:00:06.163Z,65
2023-05-22T03:01:13.276Z,65
2023-05-22T03:02:21.744Z,65
2023-05-22T03:03:28.804Z,65
2023-05-22T03:04:35.897Z,65
2023-05-22T03:05:42.893Z,65
2023-05-22T03:06:49.971Z,65
2023-05-22T03:07:59.845Z,65
2023-05-22T03:09:09.799Z,65
2023-05-22T03:10:18.436Z,65
2023-05-22T03:11:30.742Z,65
2023-05-22T03:12:38.403Z,65
2023-05-22T03:13:45.872Z,65
2023-05-22T03:14:55.817Z,65
2023-05-22T03:16:05.661Z,65
2023-05-22T03:17:12.732Z,65
2023-05-22T03:18:27.441Z,65
2023-05-22T03:19:34.518Z,65
2023-05-22T03:20:42.702Z,65
2023-05-22T03:21:49.832Z,65
2023-05-22T03:22:58.605Z,65
2023-05-22T03:24:08.499Z,65
2023-05-22T03:25:16.024Z,65
2023-05-22T03:26:23.338Z,65
2023-05-22T03:27:30.694Z,65
2023-05-22T03:28:37.748Z,65
2023-05-22T03:29:44.761Z,65
2023-05-22T03:30:57.001Z,65
2023-05-22T03:32:04.213Z,65
2023-05-22T03:33:11.704Z,65
2023-05-22T03:34:20.037Z,65
2023-05-22T03:35:28.708Z,65
2023-05-22T03:36:37.988Z,65
2023-05-22T03:37:47.069Z,65
2023-05-22T03:39:28.247Z,66
2023-05-22T03:41:44.335Z,65
2023-05-22T03:45:41.250Z,66
2023-05-22T03:46:49.473Z,66
2023-05-22T03:48:00.175Z,65
2023-05-22T03:50:27.532Z,65
2023-05-22T03:53:39.564Z,66
2023-05-22T03:54:51.321Z,66
2023-05-22T03:57:53.720Z,66
2023-05-22T03:59:07.445Z,65
2023-05-22T04:00:15.062Z,65
2023-05-22T04:01:31.115Z,65
2023-05-22T04:03:27.096Z,65
2023-05-22T04:04:44.126Z,65
2023-05-22T04:06:52.041Z,65
2023-05-22T04:08:20.118Z,65
2023-05-22T04:09:29.082Z,65
2023-05-22T04:11:28.337Z,65
2023-05-22T04:13:25.273Z,65
2023-05-22T04:14:32.564Z,65
2023-05-22T04:15:47.085Z,65
2023-05-22T04:16:59.812Z,65
2023-05-22T04:18:18.277Z,65
2023-05-22T04:19:48.097Z,66
2023-05-22T04:21:26.925Z,65
2023-05-22T04:23:04.086Z,65
2023-05-22T04:24:50.044Z,65
2023-05-22T04:25:59.364Z,65
2023-05-22T04:27:10.008Z,65
2023-05-22T04:32:31.635Z,65
2023-05-22T04:34:21.957Z,65
2023-05-22T04:38:15.334Z,65
2023-05-22T04:39:44.245Z,65
2023-05-22T04:41:14.620Z,65
2023-05-22T04:42:32.226Z,64
2023-05-22T04:44:16.921Z,64
2023-05-22T04:45:24.242Z,64
2023-05-22T04:46:44.576Z,64
2023-05-22T04:48:34.658Z,64
2023-05-22T04:50:48.649Z,64
2023-05-22T04:52:30.507Z,64
2023-05-22T05:04:01.720Z,63
2023-05-22T05:05:08.652Z,63
2023-05-22T05:06:15.649Z,63
2023-05-22T05:07:59.602Z,63
2023-05-22T05:09:06.599Z,63
2023-05-22T05:10:14.062Z,63
2023-05-22T05:11:32.371Z,63
2023-05-22T05:12:39.410Z,63
2023-05-22T05:13:46.775Z,62
2023-05-22T05:14:58.300Z,61
2023-05-22T05:16:06.708Z,61
2023-05-22T05:17:13.685Z,61
2023-05-22T05:18:23.410Z,61
2023-05-22T05:19:35.421Z,61
2023-05-22T05:20:40.829Z,60
2023-05-22T05:21:49.579Z,60
2023-05-22T05:22:56.479Z,60
2023-05-22T05:24:11.683Z,60
2023-05-22T05:25:55.154Z,60
2023-05-22T05:27:03.490Z,60
2023-05-22T05:28:30.061Z,60
2023-05-22T05:29:39.070Z,59
2023-05-22T05:31:07.983Z,59
2023-05-22T05:32:49.004Z,59
2023-05-22T05:34:34.615Z,59
2023-05-22T05:35:52.205Z,59
2023-05-22T05:37:10.787Z,59
2023-05-22T05:38:23.531Z,59
2023-05-22T05:40:12.275Z,59
2023-05-22T05:41:39.576Z,59
2023-05-22T05:42:52.402Z,59
2023-05-22T05:44:40.959Z,59
2023-05-22T05:46:38.979Z,59
2023-05-22T05:47:54.357Z,59
2023-05-22T05:49:01.170Z,58
2023-05-22T05:50:11.679Z,58
2023-05-22T05:51:18.761Z,58
2023-05-22T05:52:25.419Z,58
2023-05-22T05:53:32.232Z,58
2023-05-22T05:54:39.056Z,58
2023-05-22T05:55:45.992Z,58
2023-05-22T05:57:03.604Z,57
2023-05-22T05:58:10.491Z,57
2023-05-22T06:00:16.664Z,57
2023-05-22T06:02:13.370Z,57
2023-05-22T06:04:17.158Z,57
2023-05-22T06:05:25.090Z,57
2023-05-22T06:06:46.614Z,57
2023-05-22T06:07:55.483Z,56
2023-05-22T06:09:20.890Z,56
2023-05-22T06:10:33.592Z,56
2023-05-22T06:11:42.408Z,56
2023-05-22T06:12:51.300Z,56
2023-05-22T06:14:10.898Z,55
2023-05-22T06:15:17.770Z,54
2023-05-22T06:16:58.657Z,54
2023-05-22T06:18:05.565Z,54
2023-05-22T06:19:12.454Z,54
2023-05-22T06:20:19.197Z,54
2023-05-22T06:21:28.373Z,54
2023-05-22T06:22:36.353Z,54
2023-05-22T06:23:45.221Z,53
2023-05-22T06:24:54.779Z,53
2023-05-22T06:26:06.550Z,53
2023-05-22T06:27:13.497Z,52
2023-05-22T06:28:23.297Z,53
2023-05-22T06:29:30.367Z,53
2023-05-22T06:30:40.298Z,52
2023-05-22T06:31:47.090Z,52
2023-05-22T06:34:05.257Z,52
2023-05-22T06:35:42.290Z,52
2023-05-22T06:37:13.721Z,52
2023-05-22T06:38:25.575Z,52
2023-05-22T06:39:32.440Z,52
2023-05-22T06:40:40.600Z,52
2023-05-22T06:41:47.253Z,51
2023-05-22T06:42:54.140Z,51
2023-05-22T06:44:10.924Z,52
2023-05-22T06:45:34.444Z,52
2023-05-22T06:46:44.987Z,52
2023-05-22T06:47:57.293Z,52
2023-05-22T06:49:26.498Z,52
2023-05-22T06:52:45.737Z,0
2023-05-22T06:56:33.591Z,0
2023-05-22T07:02:11.178Z,0
2023-05-22T07:32:09.111Z,20
2023-05-22T07:33:30.372Z,20
2023-05-22T08:03:47.334Z,18
2023-05-22T08:08:05.402Z,18
2023-05-22T08:29:32.098Z,16
2023-05-22T08:56:42.734Z,36
2023-05-22T09:08:27.417Z,35
2023-05-22T09:11:11.186Z,34
2023-05-22T09:13:19.603Z,34
2023-05-22T09:20:16.120Z,33
2023-05-22T09:23:27.810Z,0
2023-05-22T09:24:56.751Z,19
2023-05-22T09:26:44.033Z,19
2023-05-22T09:27:50.907Z,32
2023-05-22T09:28:57.765Z,32
2023-05-22T09:30:04.595Z,34
2023-05-22T09:31:12.526Z,33
2023-05-22T09:32:19.354Z,33
2023-05-22T09:33:26.283Z,32
2023-05-22T09:34:33.740Z,31
2023-05-22T09:35:46.298Z,32
2023-05-22T09:36:59.322Z,32
2023-05-22T09:38:14.551Z,31
2023-05-22T09:39:21.355Z,31
2023-05-22T09:40:31.515Z,31
2023-05-22T09:41:38.292Z,31
2023-05-22T09:42:48.520Z,30
2023-05-22T09:43:55.933Z,31
2023-05-22T09:45:06.376Z,31
2023-05-22T09:46:13.598Z,30
2023-05-22T09:47:26.801Z,30
2023-05-22T09:48:36.506Z,31
2023-05-22T09:49:46.463Z,31
2023-05-22T09:51:26.996Z,31
2023-05-22T09:52:37.316Z,32
2023-05-22T09:54:06.243Z,32
2023-05-22T09:55:16.017Z,32
2023-05-22T09:56:35.147Z,32
2023-05-22T09:57:45.438Z,32
2023-05-22T09:58:52.374Z,31
2023-05-22T10:00:00.624Z,32
2023-05-22T10:01:32.612Z,32
2023-05-22T10:02:39.338Z,33
2023-05-22T10:03:47.951Z,32
2023-05-22T10:04:55.935Z,32
2023-05-22T10:06:08.093Z,31
2023-05-22T10:07:21.065Z,31
2023-05-22T10:11:02.957Z,31
2023-05-22T10:12:12.708Z,31
2023-05-22T10:13:22.377Z,32
2023-05-22T10:14:46.881Z,33
2023-05-22T10:15:56.634Z,31
2023-05-22T10:17:06.714Z,31
2023-05-22T10:18:13.370Z,31
2023-05-22T10:19:33.372Z,32
2023-05-22T10:20:40.639Z,32
2023-05-22T10:21:50.120Z,31
2023-05-22T10:22:57.123Z,31
2023-05-22T10:24:03.908Z,31
2023-05-22T10:25:10.923Z,31
2023-05-22T10:26:17.506Z,32
2023-05-22T10:28:06.672Z,32
2023-05-22T10:29:13.582Z,32
2023-05-22T10:30:32.368Z,31
2023-05-22T10:31:44.325Z,31
2023-05-22T10:32:56.648Z,30
2023-05-22T10:34:10.975Z,29
2023-05-22T10:35:17.750Z,30
2023-05-22T10:36:32.405Z,29
2023-05-22T10:37:44.596Z,30
2023-05-22T10:38:56.572Z,29
2023-05-22T10:40:13.362Z,30
2023-05-22T10:42:20.722Z,30
2023-05-22T10:43:27.621Z,30
2023-05-22T10:44:37.818Z,30
2023-05-22T10:46:07.734Z,31
2023-05-22T10:47:54.120Z,31
2023-05-22T10:49:06.286Z,31
2023-05-22T10:50:30.602Z,31
2023-05-22T10:51:37.390Z,32
2023-05-22T10:53:01.226Z,32
2023-05-22T10:54:18.441Z,31
2023-05-22T10:55:25.391Z,33
2023-05-22T10:56:32.514Z,34
2023-05-22T10:57:39.531Z,32
2023-05-22T10:58:46.323Z,33
2023-05-22T10:59:58.295Z,34
2023-05-22T11:01:10.540Z,34
2023-05-22T11:02:47.889Z,34
2023-05-22T11:04:44.673Z,34
2023-05-22T11:05:51.444Z,34
2023-05-22T11:07:36.167Z,34
2023-05-22T11:08:52.031Z,32
2023-05-22T11:09:58.933Z,32
2023-05-22T11:11:05.917Z,32
2023-05-22T11:12:15.863Z,33
2023-05-22T11:13:29.220Z,32
2023-05-22T11:14:34.975Z,32
2023-05-22T11:15:41.836Z,32
2023-05-22T11:16:48.774Z,32
2023-05-22T11:17:55.832Z,31
2023-05-22T11:19:10.764Z,31
2023-05-22T11:20:09.660Z,32
2023-05-22T11:21:29.304Z,32
2023-05-22T11:22:36.199Z,33
2023-05-22T11:24:01.056Z,32
2023-05-22T11:25:07.842Z,32
2023-05-22T11:26:25.299Z,31
2023-05-22T11:27:30.651Z,32
2023-05-22T11:28:37.457Z,32
2023-05-22T11:29:44.327Z,32
2023-05-22T11:30:51.336Z,32
2023-05-22T11:31:58.091Z,32
2023-05-22T11:33:04.878Z,33
2023-05-22T11:34:11.674Z,33
2023-05-22T11:35:18.654Z,32
2023-05-22T11:36:25.604Z,31
2023-05-22T11:37:57.269Z,31
2023-05-22T11:42:01.386Z,31
2023-05-22T11:43:08.266Z,31
2023-05-22T11:44:15.124Z,32
2023-05-22T11:45:43.842Z,31
2023-05-22T11:46:51.173Z,31
2023-05-22T11:47:58.187Z,31
2023-05-22T11:49:04.960Z,31
2023-05-22T11:50:20.255Z,31
2023-05-22T11:51:47.575Z,31
2023-05-22T11:52:55.196Z,32
2023-05-22T11:54:02.025Z,30
2023-05-22T11:55:08.884Z,30
2023-05-22T11:56:15.750Z,30
2023-05-22T11:57:22.787Z,30
2023-05-22T11:58:29.649Z,30
2023-05-22T11:59:46.572Z,31
2023-05-22T12:01:13.301Z,31
2023-05-22T12:02:26.100Z,33
2023-05-22T12:03:43.373Z,33
2023-05-22T12:04:50.789Z,33
2023-05-22T12:06:00.556Z,33
2023-05-22T12:07:07.567Z,32
2023-05-22T12:08:14.252Z,33
2023-05-22T12:09:21.230Z,33
2023-05-22T12:10:28.039Z,33
2023-05-22T12:11:34.847Z,33
2023-05-22T12:12:41.726Z,32
2023-05-22T12:14:18.248Z,33
2023-05-22T12:15:57.558Z,33
2023-05-22T12:17:29.474Z,33
2023-05-22T12:19:23.352Z,33
2023-05-22T12:20:30.174Z,33
2023-05-22T12:21:37.142Z,33
2023-05-22T12:22:44.326Z,32
2023-05-22T12:25:07.203Z,32
2023-05-22T12:26:21.920Z,32
2023-05-22T12:27:29.621Z,32
2023-05-22T12:28:35.571Z,34
2023-05-22T12:29:42.387Z,33
2023-05-22T12:30:49.167Z,33
2023-05-22T12:31:56.021Z,33
2023-05-22T12:33:02.925Z,33
2023-05-22T12:34:09.584Z,33
2023-05-22T12:35:16.501Z,34
2023-05-22T12:36:23.416Z,33
2023-05-22T12:37:38.386Z,32
2023-05-22T12:38:45.513Z,32
2023-05-22T12:39:52.187Z,32
2023-05-22T12:41:01.874Z,32
2023-05-22T12:42:08.843Z,32
2023-05-22T12:43:15.510Z,33
2023-05-22T12:44:22.268Z,33
2023-05-22T12:45:29.264Z,32
2023-05-22T12:46:36.069Z,33
2023-05-22T12:47:42.821Z,33
2023-05-22T12:48:49.565Z,34
2023-05-22T12:49:56.477Z,34
2023-05-22T12:51:03.361Z,33
2023-05-22T12:52:10.118Z,32
2023-05-22T12:53:16.848Z,33
2023-05-22T12:54:23.726Z,33
2023-05-22T12:55:30.561Z,33
2023-05-22T12:56:37.308Z,32
2023-05-22T12:57:44.070Z,32
2023-05-22T12:58:50.875Z,31
2023-05-22T12:59:57.710Z,31
2023-05-22T13:01:04.549Z,31
2023-05-22T13:02:11.372Z,32
2023-05-22T13:03:18.124Z,32
2023-05-22T13:04:24.869Z,32
2023-05-22T13:05:31.808Z,31
2023-05-22T13:06:38.621Z,30
2023-05-22T13:07:45.456Z,31
2023-05-22T13:08:52.333Z,32
2023-05-22T13:09:59.282Z,31
2023-05-22T13:11:06.116Z,30
2023-05-22T13:12:12.958Z,32
2023-05-22T13:13:19.697Z,31
2023-05-22T13:14:26.446Z,31
2023-05-22T13:15:33.345Z,31
2023-05-22T13:16:40.310Z,30
2023-05-22T13:17:46.992Z,30
2023-05-22T13:18:53.840Z,30
2023-05-22T13:20:00.657Z,30
2023-05-22T13:21:07.653Z,30
2023-05-22T13:22:14.513Z,31
2023-05-22T13:23:21.292Z,30
2023-05-22T13:24:28.136Z,28
2023-05-22T13:25:35.041Z,29
2023-05-22T13:26:41.764Z,29
2023-05-22T13:27:48.621Z,29
2023-05-22T13:28:55.402Z,29
2023-05-22T13:30:02.261Z,30
2023-05-22T13:31:10.036Z,29
2023-05-22T13:32:16.919Z,29
2023-05-22T13:33:23.680Z,29
2023-05-22T13:34:30.525Z,30
2023-05-22T13:35:37.416Z,30
2023-05-22T13:36:44.140Z,31
2023-05-22T13:37:51.018Z,29
2023-05-22T13:38:57.810Z,30
2023-05-22T13:40:04.638Z,31
2023-05-22T13:41:11.732Z,31
2023-05-22T13:42:18.566Z,30
2023-05-22T13:43:25.356Z,30
2023-05-22T13:44:32.121Z,30
2023-05-22T13:45:39.117Z,30
2023-05-22T13:46:45.817Z,30
2023-05-22T13:47:52.616Z,31
2023-05-22T13:48:59.330Z,30
2023-05-22T13:50:06.133Z,30
2023-05-22T13:51:12.986Z,30
2023-05-22T13:52:19.954Z,30
2023-05-22T13:53:26.775Z,30
2023-05-22T13:54:33.565Z,30
2023-05-22T13:55:40.571Z,30
2023-05-22T13:56:47.243Z,30
2023-05-22T13:57:53.948Z,30
2023-05-22T13:59:00.762Z,29
2023-05-22T14:00:07.547Z,30
2023-05-22T14:01:14.792Z,31
2023-05-22T14:02:21.617Z,30
2023-05-22T14:03:28.428Z,31
2023-05-22T14:04:35.165Z,32
2023-05-22T14:05:42.276Z,31
2023-05-22T14:06:48.757Z,31
2023-05-22T14:07:55.570Z,32
2023-05-22T14:09:02.387Z,31
2023-05-22T14:10:09.109Z,32
2023-05-22T14:11:15.860Z,32
2023-05-22T14:12:22.717Z,33
2023-05-22T14:13:29.402Z,33
2023-05-22T14:14:36.150Z,33
2023-05-22T14:15:42.976Z,33
2023-05-22T14:16:49.706Z,32
2023-05-22T14:17:56.628Z,32
2023-05-22T14:19:03.410Z,33
2023-05-22T14:20:10.136Z,32
2023-05-22T14:21:16.892Z,32
2023-05-22T14:22:23.687Z,32
2023-05-22T14:23:30.562Z,32
2023-05-22T14:24:37.332Z,32
2023-05-22T14:25:44.221Z,32
2023-05-22T14:26:50.963Z,32
2023-05-22T14:27:57.915Z,32
2023-05-22T14:29:05.128Z,33
2023-05-22T14:30:11.897Z,33
2023-05-22T14:31:18.704Z,33
2023-05-22T14:32:25.475Z,33
2023-05-22T14:33:32.292Z,33
2023-05-22T14:34:39.187Z,33
2023-05-22T14:35:45.905Z,33
2023-05-22T14:36:52.761Z,33
2023-05-22T14:38:02.503Z,33
2023-05-22T14:39:09.285Z,33
2023-05-22T14:40:16.045Z,33
2023-05-22T14:41:23.019Z,33
2023-05-22T14:42:29.773Z,33
2023-05-22T14:43:36.731Z,33
2023-05-22T14:44:43.366Z,33
2023-05-22T14:45:50.195Z,33
2023-05-22T14:46:57.089Z,33
2023-05-22T14:48:03.920Z,33
2023-05-22T14:49:10.700Z,34
2023-05-22T14:50:19.483Z,34
2023-05-22T14:51:24.432Z,34
2023-05-22T14:52:31.236Z,34
2023-05-22T14:53:38.025Z,35
2023-05-22T14:54:44.828Z,35
2023-05-22T14:55:51.655Z,35
2023-05-22T14:56:58.527Z,35
2023-05-22T14:58:05.323Z,35
2023-05-22T14:59:12.276Z,34
2023-05-22T15:00:18.912Z,35
2023-05-22T15:01:25.848Z,35
2023-05-22T15:02:32.635Z,35
2023-05-22T15:03:39.523Z,35
2023-05-22T15:04:46.411Z,34
2023-05-22T15:05:53.132Z,34
2023-05-22T15:06:59.942Z,34
2023-05-22T15:08:06.814Z,33
2023-05-22T15:09:13.569Z,34
2023-05-22T15:10:20.359Z,33
2023-05-22T15:11:27.168Z,33
2023-05-22T15:12:34.039Z,34
2023-05-22T15:13:40.769Z,34
2023-05-22T15:14:47.593Z,34
2023-05-22T15:15:54.266Z,34
2023-05-22T15:17:01.004Z,33
2023-05-22T15:18:07.905Z,33
2023-05-22T15:19:14.703Z,34
2023-05-22T15:20:21.430Z,34
2023-05-22T15:21:28.203Z,35
2023-05-22T15:22:34.954Z,34
2023-05-22T15:23:41.981Z,34
2023-05-22T15:24:48.677Z,35
2023-05-22T15:26:05.795Z,34
2023-05-22T15:27:12.673Z,35
2023-05-22T15:28:19.646Z,34
2023-05-22T15:29:26.462Z,34
2023-05-22T15:30:33.315Z,34
2023-05-22T15:31:40.070Z,34
2023-05-22T15:32:46.883Z,34
2023-05-22T15:33:53.640Z,34
2023-05-22T15:35:00.389Z,34
2023-05-22T15:36:07.311Z,35
2023-05-22T15:37:14.129Z,35
2023-05-22T15:38:20.957Z,35
2023-05-22T15:39:27.685Z,34
2023-05-22T15:40:34.410Z,34
2023-05-22T15:41:41.980Z,33
2023-05-22T15:42:48.009Z,33
2023-05-22T15:43:54.733Z,33
2023-05-22T15:45:01.683Z,34
2023-05-22T15:46:08.812Z,34
2023-05-22T15:47:15.497Z,35
2023-05-22T15:48:22.315Z,34
2023-05-22T15:49:31.178Z,35
2023-05-22T15:50:35.922Z,35
2023-05-22T15:51:42.723Z,35
2023-05-22T15:52:49.747Z,35
2023-05-22T15:53:56.676Z,36
2023-05-22T15:55:03.431Z,36
2023-05-22T15:56:10.391Z,36
2023-05-22T15:57:17.196Z,36
2023-05-22T15:58:24.018Z,37
2023-05-22T15:59:30.955Z,37
2023-05-22T16:00:37.735Z,37
2023-05-22T16:01:44.780Z,36
2023-05-22T16:02:51.455Z,36
2023-05-22T16:03:58.194Z,36
2023-05-22T16:05:04.955Z,36
2023-05-22T16:06:11.944Z,36
2023-05-22T16:07:18.749Z,36
2023-05-22T16:08:25.607Z,36
2023-05-22T16:09:32.905Z,36
2023-05-22T16:10:39.386Z,36
2023-05-22T16:11:46.223Z,36
2023-05-22T16:12:52.981Z,36
2023-05-22T16:13:59.850Z,37
2023-05-22T16:15:06.912Z,37
2023-05-22T16:16:13.687Z,36
2023-05-22T16:17:20.601Z,36
2023-05-22T16:18:27.357Z,36
2023-05-22T16:19:34.476Z,36
2023-05-22T16:20:41.229Z,36
2023-05-22T16:21:48.007Z,36
2023-05-22T16:22:54.856Z,36
2023-05-22T16:24:01.937Z,36
2023-05-22T16:25:08.896Z,37
2023-05-22T16:26:15.639Z,37
2023-05-22T16:27:22.510Z,37
2023-05-22T16:28:29.305Z,37
2023-05-22T16:29:36.115Z,36
2023-05-22T16:30:42.936Z,36
2023-05-22T16:31:49.781Z,36
2023-05-22T16:32:56.583Z,37
2023-05-22T16:34:03.240Z,37
2023-05-22T16:35:10.045Z,37
2023-05-22T16:36:16.805Z,37
2023-05-22T16:37:23.738Z,37
2023-05-22T16:38:30.488Z,37
2023-05-22T16:39:37.315Z,37
2023-05-22T16:40:44.129Z,37
2023-05-22T16:41:52.911Z,37
2023-05-22T16:42:57.678Z,37
2023-05-22T16:44:04.490Z,36
2023-05-22T16:45:11.310Z,37
2023-05-22T16:46:18.061Z,37
2023-05-22T16:47:24.858Z,37
2023-05-22T16:48:31.810Z,37
2023-05-22T16:49:38.529Z,36
2023-05-22T16:50:45.400Z,36
2023-05-22T16:51:52.154Z,36
2023-05-22T16:52:58.962Z,37
2023-05-22T16:54:05.741Z,37
2023-05-22T16:55:12.616Z,38
2023-05-22T16:56:19.388Z,37
2023-05-22T16:57:26.231Z,37
2023-05-22T16:58:33.027Z,36
2023-05-22T16:59:39.934Z,37
2023-05-22T17:00:47.010Z,37
2023-05-22T17:01:53.750Z,37
2023-05-22T17:03:00.583Z,37
2023-05-22T17:04:07.513Z,37
2023-05-22T17:05:14.358Z,37
2023-05-22T17:06:21.268Z,37
2023-05-22T17:07:28.046Z,37
2023-05-22T17:08:37.707Z,37
2023-05-22T17:09:44.707Z,37
2023-05-22T17:10:51.569Z,38
2023-05-22T17:11:58.701Z,37
2023-05-22T17:13:05.650Z,37
2023-05-22T17:14:13.531Z,38
2023-05-22T17:15:20.371Z,39
2023-05-22T17:16:27.183Z,39
2023-05-22T17:17:34.031Z,38
2023-05-22T17:18:40.817Z,37
2023-05-22T17:19:47.803Z,38
2023-05-22T17:20:54.473Z,38
2023-05-22T17:22:01.272Z,38
2023-05-22T17:23:08.243Z,38
2023-05-22T17:24:15.131Z,38
2023-05-22T17:25:21.882Z,38
2023-05-22T17:26:28.692Z,38
2023-05-22T17:27:36.728Z,38
2023-05-22T17:28:42.703Z,38
2023-05-22T17:29:49.594Z,38
2023-05-22T17:30:56.362Z,38
2023-05-22T17:32:03.177Z,39
2023-05-22T17:33:10.139Z,39
2023-05-22T17:34:17.223Z,39
2023-05-22T17:35:24.224Z,39
2023-05-22T17:36:30.906Z,39
2023-05-22T17:37:37.754Z,39
2023-05-22T17:38:44.565Z,39
2023-05-22T17:39:51.381Z,39
2023-05-22T17:41:17.118Z,39
2023-05-22T17:42:24.071Z,39
2023-05-22T17:43:31.363Z,40
2023-05-22T17:44:41.983Z,40
2023-05-22T17:45:50.587Z,40
2023-05-22T17:47:05.389Z,40
2023-05-22T17:48:14.475Z,40
2023-05-22T17:49:22.800Z,40
2023-05-22T17:50:30.780Z,40
2023-05-22T17:51:39.267Z,40
2023-05-22T17:52:46.098Z,40
2023-05-22T17:53:56.627Z,40
2023-05-22T17:55:06.946Z,41
2023-05-22T17:56:16.902Z,42
2023-05-22T17:57:23.688Z,41
2023-05-22T17:58:30.573Z,41
2023-05-22T17:59:39.281Z,42
2023-05-22T18:00:44.203Z,41
2023-05-22T18:01:51.546Z,42
2023-05-22T18:02:58.755Z,41
2023-05-22T18:04:05.706Z,42
2023-05-22T18:05:15.150Z,42
2023-05-22T18:06:24.218Z,42
2023-05-22T18:07:31.825Z,42
2023-05-22T18:08:42.296Z,42
2023-05-22T18:09:50.270Z,42
2023-05-22T18:10:57.158Z,42
2023-05-22T18:12:08.136Z,42
2023-05-22T18:13:14.429Z,42
2023-05-22T18:14:21.699Z,42
2023-05-22T18:15:28.723Z,42
2023-05-22T18:16:35.688Z,42
2023-05-22T18:17:42.552Z,42
2023-05-22T18:18:49.470Z,43
2023-05-22T18:19:56.379Z,43
2023-05-22T18:21:03.567Z,43
2023-05-22T18:22:13.759Z,43
2023-05-22T18:23:22.131Z,44
2023-05-22T18:24:31.857Z,43
2023-05-22T18:25:41.560Z,43
2023-05-22T18:26:48.416Z,43
2023-05-22T18:27:55.588Z,43
2023-05-22T18:29:08.625Z,43
2023-05-22T18:30:18.377Z,44
2023-05-22T18:31:25.890Z,44
2023-05-22T18:32:32.851Z,44
2023-05-22T18:33:39.613Z,44
2023-05-22T18:34:46.486Z,44
2023-05-22T18:35:55.964Z,44
2023-05-22T18:37:05.582Z,44
2023-05-22T18:38:12.559Z,44
2023-05-22T18:39:19.749Z,45
2023-05-22T18:40:26.629Z,45
2023-05-22T18:41:33.420Z,45
2023-05-22T18:42:43.141Z,45
2023-05-22T18:43:50.039Z,45
2023-05-22T18:45:03.081Z,45
2023-05-22T18:46:15.854Z,45
2023-05-22T18:48:15.240Z,45
2023-05-22T18:49:22.091Z,45
2023-05-22T18:50:29.110Z,45
2023-05-22T18:51:41.857Z,45
2023-05-22T18:52:53.776Z,45
2023-05-22T18:54:04.106Z,46
2023-05-22T18:55:10.822Z,46
2023-05-22T18:56:17.683Z,46
2023-05-22T18:57:30.359Z,46
2023-05-22T18:58:37.253Z,46
2023-05-22T18:59:44.064Z,47
2023-05-22T19:00:50.935Z,46
2023-05-22T19:01:57.727Z,46
2023-05-22T19:03:04.919Z,46
2023-05-22T19:04:14.644Z,46
2023-05-22T19:05:21.533Z,46
2023-05-22T19:06:28.461Z,47
2023-05-22T19:07:37.991Z,47
2023-05-22T19:08:47.624Z,47
2023-05-22T19:09:55.674Z,47
2023-05-22T19:11:02.544Z,47
2023-05-22T19:12:14.457Z,47
2023-05-22T19:13:27.583Z,47
2023-05-22T19:14:34.443Z,48
2023-05-22T19:15:47.091Z,48
2023-05-22T19:16:53.954Z,48
2023-05-22T19:18:00.749Z,48
2023-05-22T19:19:10.961Z,48
2023-05-22T19:20:17.706Z,48
2023-05-22T19:21:33.548Z,48
2023-05-22T19:22:49.168Z,48
2023-05-22T19:24:04.542Z,48
2023-05-22T19:25:11.472Z,48
2023-05-22T19:26:36.027Z,48
2023-05-22T19:28:13.766Z,48
2023-05-22T19:29:28.420Z,49
2023-05-22T19:30:35.271Z,49
2023-05-22T19:31:44.928Z,49
2023-05-22T19:32:51.701Z,49
2023-05-22T19:34:44.389Z,49
2023-05-22T19:35:53.896Z,49
2023-05-22T19:37:10.730Z,49
2023-05-22T19:38:23.520Z,49
2023-05-22T19:39:30.277Z,49
2023-05-22T19:40:37.310Z,50
2023-05-22T19:41:54.001Z,50
2023-05-22T19:43:03.288Z,50
2023-05-22T19:44:20.569Z,51
2023-05-22T19:45:26.034Z,51
2023-05-22T19:46:38.450Z,51